sensor_id;sensor_type;location;lat;lon;timestamp;pressure;altitude;pressure_sealevel;temperature;humidity
21361;BME280;10839;43.206;23.550;2024-03-08T00:00:15;97450.53;;;5.67;100.00
21361;BME280;10839;43.206;23.550;2024-03-08T00:02:47;97437.78;;;5.61;100.00
21361;BME280;10839;43.206;23.550;2024-03-08T00:05:14;97442.38;;;5.51;100.00
21361;BME280;10839;43.206;23.550;2024-03-08T00:07:40;97436.94;;;5.61;100.00
21361;BME280;10839;43.206;23.550;2024-03-08T00:10:08;97442.19;;;5.70;100.00
21361;BME280;10839;43.206;23.550;2024-03-08T00:12:40;97455.72;;;5.69;100.00
21361;BME280;10839;43.206;23.550;2024-03-08T00:15:10;97444.78;;;5.37;100.00
21361;BME280;10839;43.206;23.550;2024-03-08T00:17:39;97445.53;;;5.47;100.00
21361;BME280;10839;43.206;23.550;2024-03-08T00:20:06;97443.44;;;5.58;100.00
21361;BME280;10839;43.206;23.550;2024-03-08T00:22:37;97459.34;;;5.85;100.00
21361;BME280;10839;43.206;23.550;2024-03-08T00:25:07;97461.25;;;5.75;100.00
21361;BME280;10839;43.206;23.550;2024-03-08T00:27:36;97464.06;;;5.74;100.00
21361;BME280;10839;43.206;23.550;2024-03-08T00:30:02;97451.63;;;5.57;100.00
21361;BME280;10839;43.206;23.550;2024-03-08T00:32:28;97444.56;;;5.56;100.00
21361;BME280;10839;43.206;23.550;2024-03-08T00:34:54;97452.16;;;5.86;100.00
21361;BME280;10839;43.206;23.550;2024-03-08T00:37:20;97459.41;;;5.76;100.00
21361;BME280;10839;43.206;23.550;2024-03-08T00:39:51;97463.16;;;5.83;100.00
21361;BME280;10839;43.206;23.550;2024-03-08T00:42:17;97455.66;;;5.86;100.00
21361;BME280;10839;43.206;23.550;2024-03-08T00:44:43;97463.19;;;5.91;100.00
21361;BME280;10839;43.206;23.550;2024-03-08T00:47:09;97452.06;;;5.78;100.00
21361;BME280;10839;43.206;23.550;2024-03-08T00:49:35;97451.09;;;5.79;100.00
21361;BME280;10839;43.206;23.550;2024-03-08T00:52:02;97453.03;;;5.69;100.00
21361;BME280;10839;43.206;23.550;2024-03-08T00:54:27;97437.91;;;5.52;100.00
21361;BME280;10839;43.206;23.550;2024-03-08T00:56:53;97449.56;;;5.76;100.00
21361;BME280;10839;43.206;23.550;2024-03-08T00:59:18;97449.34;;;5.70;100.00
21361;BME280;10839;43.206;23.550;2024-03-08T01:01:44;97450.97;;;5.63;100.00
21361;BME280;10839;43.206;23.550;2024-03-08T01:04:10;97449.41;;;5.78;100.00
21361;BME280;10839;43.206;23.550;2024-03-08T01:06:35;97453.69;;;5.71;100.00
21361;BME280;10839;43.206;23.550;2024-03-08T01:09:01;97441.03;;;5.73;100.00
21361;BME280;10839;43.206;23.550;2024-03-08T01:11:26;97427.97;;;5.62;100.00
21361;BME280;10839;43.206;23.550;2024-03-08T01:13:53;97443.34;;;5.68;100.00
21361;BME280;10839;43.206;23.550;2024-03-08T01:16:19;97432.97;;;5.65;100.00
21361;BME280;10839;43.206;23.550;2024-03-08T01:18:47;97449.72;;;5.75;100.00
21361;BME280;10839;43.206;23.550;2024-03-08T01:21:13;97450.03;;;5.72;100.00
21361;BME280;10839;43.206;23.550;2024-03-08T01:23:39;97447.63;;;5.61;100.00
21361;BME280;10839;43.206;23.550;2024-03-08T01:26:04;97445.03;;;5.69;100.00
21361;BME280;10839;43.206;23.550;2024-03-08T01:28:30;97438.63;;;5.62;100.00
21361;BME280;10839;43.206;23.550;2024-03-08T01:30:56;97444.28;;;5.59;100.00
21361;BME280;10839;43.206;23.550;2024-03-08T01:33:25;97445.03;;;5.69;100.00
21361;BME280;10839;43.206;23.550;2024-03-08T01:35:54;97444.38;;;5.75;100.00
21361;BME280;10839;43.206;23.550;2024-03-08T01:38:20;97453.00;;;5.86;100.00
21361;BME280;10839;43.206;23.550;2024-03-08T01:40:49;97456.84;;;5.66;100.00
21361;BME280;10839;43.206;23.550;2024-03-08T01:43:20;97457.72;;;5.75;100.00
21361;BME280;10839;43.206;23.550;2024-03-08T01:45:46;97454.97;;;5.59;100.00
21361;BME280;10839;43.206;23.550;2024-03-08T01:48:11;97454.13;;;5.58;100.00
21361;BME280;10839;43.206;23.550;2024-03-08T01:50:38;97456.00;;;5.66;100.00
21361;BME280;10839;43.206;23.550;2024-03-08T01:53:05;97447.84;;;5.67;100.00
21361;BME280;10839;43.206;23.550;2024-03-08T01:55:32;97454.97;;;5.59;100.00
21361;BME280;10839;43.206;23.550;2024-03-08T01:57:59;97453.91;;;5.52;100.00
21361;BME280;10839;43.206;23.550;2024-03-08T02:00:25;97456.53;;;5.44;100.00
21361;BME280;10839;43.206;23.550;2024-03-08T02:02:53;97449.09;;;5.55;100.00
21361;BME280;10839;43.206;23.550;2024-03-08T02:05:19;97432.16;;;5.39;100.00
21361;BME280;10839;43.206;23.550;2024-03-08T02:07:45;97443.84;;;5.46;100.00
21361;BME280;10839;43.206;23.550;2024-03-08T02:10:11;97443.97;;;5.62;100.00
21361;BME280;10839;43.206;23.550;2024-03-08T02:12:38;97442.38;;;5.51;100.00
21361;BME280;10839;43.206;23.550;2024-03-08T02:15:04;97437.25;;;5.58;100.00
21361;BME280;10839;43.206;23.550;2024-03-08T02:17:32;97439.25;;;5.56;100.00
21361;BME280;10839;43.206;23.550;2024-03-08T02:19:59;97439.19;;;5.48;100.00
21361;BME280;10839;43.206;23.550;2024-03-08T02:22:28;97442.81;;;5.39;100.00
21361;BME280;10839;43.206;23.550;2024-03-08T02:25:00;97432.50;;;5.44;100.00
21361;BME280;10839;43.206;23.550;2024-03-08T02:27:27;97424.22;;;5.29;100.00
21361;BME280;10839;43.206;23.550;2024-03-08T02:29:55;97432.84;;;5.23;100.00
21361;BME280;10839;43.206;23.550;2024-03-08T02:32:24;97443.00;;;5.19;100.00
21361;BME280;10839;43.206;23.550;2024-03-08T02:34:50;97438.50;;;5.20;100.00
21361;BME280;10839;43.206;23.550;2024-03-08T02:37:16;97433.06;;;5.30;100.00
21361;BME280;10839;43.206;23.550;2024-03-08T02:39:42;97438.72;;;5.27;100.00
21361;BME280;10839;43.206;23.550;2024-03-08T02:42:08;97434.53;;;5.50;100.00
21361;BME280;10839;43.206;23.550;2024-03-08T02:44:33;97433.16;;;5.46;100.00
21361;BME280;10839;43.206;23.550;2024-03-08T02:46:59;97433.50;;;5.43;100.00
21361;BME280;10839;43.206;23.550;2024-03-08T02:49:28;97437.78;;;5.36;100.00
21361;BME280;10839;43.206;23.550;2024-03-08T02:51:54;97443.78;;;5.38;100.00
21361;BME280;10839;43.206;23.550;2024-03-08T02:54:20;97434.53;;;5.50;100.00
21361;BME280;10839;43.206;23.550;2024-03-08T02:56:46;97436.31;;;5.41;100.00
21361;BME280;10839;43.206;23.550;2024-03-08T02:59:17;97425.31;;;5.18;100.00
21361;BME280;10839;43.206;23.550;2024-03-08T03:01:44;97424.47;;;5.18;100.00
21361;BME280;10839;43.206;23.550;2024-03-08T03:04:09;97439.88;;;5.50;100.00
21361;BME280;10839;43.206;23.550;2024-03-08T03:06:35;97430.16;;;5.41;100.00
21361;BME280;10839;43.206;23.550;2024-03-08T03:09:01;97440.84;;;5.41;100.00
21361;BME280;10839;43.206;23.550;2024-03-08T03:11:27;97441.75;;;5.32;100.00
21361;BME280;10839;43.206;23.550;2024-03-08T03:13:52;97429.91;;;5.34;100.00
21361;BME280;10839;43.206;23.550;2024-03-08T03:16:19;97442.56;;;5.50;100.00
21361;BME280;10839;43.206;23.550;2024-03-08T03:18:48;97452.84;;;5.45;100.00
21361;BME280;10839;43.206;23.550;2024-03-08T03:21:14;97449.13;;;5.38;100.00
21361;BME280;10839;43.206;23.550;2024-03-08T03:23:40;97453.59;;;5.55;100.00
21361;BME280;10839;43.206;23.550;2024-03-08T03:26:08;97438.97;;;5.59;100.00
21361;BME280;10839;43.206;23.550;2024-03-08T03:28:33;97453.81;;;5.61;100.00
21361;BME280;10839;43.206;23.550;2024-03-08T03:30:59;97444.16;;;5.43;100.00
21361;BME280;10839;43.206;23.550;2024-03-08T03:33:25;97463.34;;;5.64;100.00
21361;BME280;10839;43.206;23.550;2024-03-08T03:35:51;97451.28;;;5.60;100.00
21361;BME280;10839;43.206;23.550;2024-03-08T03:38:17;97463.63;;;5.61;100.00
21361;BME280;10839;43.206;23.550;2024-03-08T03:40:45;97465.66;;;5.59;100.00
21361;BME280;10839;43.206;23.550;2024-03-08T03:43:11;97458.28;;;5.61;100.00
21361;BME280;10839;43.206;23.550;2024-03-08T03:45:37;97464.38;;;5.71;100.00
21361;BME280;10839;43.206;23.550;2024-03-08T03:48:03;97455.56;;;5.53;100.00
21361;BME280;10839;43.206;23.550;2024-03-08T03:50:29;97465.66;;;5.59;100.00
21361;BME280;10839;43.206;23.550;2024-03-08T03:52:55;97470.72;;;5.27;100.00
21361;BME280;10839;43.206;23.550;2024-03-08T03:55:21;97472.38;;;5.28;100.00
21361;BME280;10839;43.206;23.550;2024-03-08T03:57:47;97470.44;;;5.55;100.00
21361;BME280;10839;43.206;23.550;2024-03-08T04:00:13;97471.78;;;5.34;100.00
21361;BME280;10839;43.206;23.550;2024-03-08T04:02:40;97477.44;;;5.31;100.00
21361;BME280;10839;43.206;23.550;2024-03-08T04:05:09;97464.47;;;5.36;100.00
21361;BME280;10839;43.206;23.550;2024-03-08T04:07:35;97487.00;;;5.59;100.00
21361;BME280;10839;43.206;23.550;2024-03-08T04:10:02;97481.50;;;5.43;100.00
21361;BME280;10839;43.206;23.550;2024-03-08T04:12:28;97477.25;;;5.50;100.00
21361;BME280;10839;43.206;23.550;2024-03-08T04:14:57;97461.44;;;5.31;100.00
21361;BME280;10839;43.206;23.550;2024-03-08T04:17:23;97491.28;;;5.52;100.00
21361;BME280;10839;43.206;23.550;2024-03-08T04:19:51;97487.06;;;5.49;100.00
21361;BME280;10839;43.206;23.550;2024-03-08T04:22:17;97482.84;;;5.39;100.00
21361;BME280;10839;43.206;23.550;2024-03-08T04:24:44;97481.78;;;5.32;100.00
21361;BME280;10839;43.206;23.550;2024-03-08T04:27:10;97493.09;;;5.51;100.00
21361;BME280;10839;43.206;23.550;2024-03-08T04:29:35;97496.78;;;5.33;100.00
21361;BME280;10839;43.206;23.550;2024-03-08T04:32:05;97484.00;;;5.18;100.00
21361;BME280;10839;43.206;23.550;2024-03-08T04:34:32;97492.16;;;5.17;100.00
21361;BME280;10839;43.206;23.550;2024-03-08T04:36:57;97501.13;;;5.34;100.00
21361;BME280;10839;43.206;23.550;2024-03-08T04:39:23;97504.88;;;5.41;100.00
21361;BME280;10839;43.206;23.550;2024-03-08T04:41:49;97504.03;;;5.40;100.00
21361;BME280;10839;43.206;23.550;2024-03-08T04:44:15;97512.50;;;5.36;100.00
21361;BME280;10839;43.206;23.550;2024-03-08T04:46:43;97512.78;;;5.33;100.00
21361;BME280;10839;43.206;23.550;2024-03-08T04:49:08;97510.81;;;5.35;100.00
21361;BME280;10839;43.206;23.550;2024-03-08T04:51:34;97517.53;;;5.39;100.00
21361;BME280;10839;43.206;23.550;2024-03-08T04:53:59;97515.66;;;5.57;100.00
21361;BME280;10839;43.206;23.550;2024-03-08T04:56:25;97502.03;;;5.42;100.00
21361;BME280;10839;43.206;23.550;2024-03-08T04:58:51;97522.00;;;5.38;100.00
21361;BME280;10839;43.206;23.550;2024-03-08T05:01:16;97515.22;;;5.44;100.00
21361;BME280;10839;43.206;23.550;2024-03-08T05:03:42;97533.66;;;5.55;100.00
21361;BME280;10839;43.206;23.550;2024-03-08T05:06:07;97513.09;;;5.30;100.00
21361;BME280;10839;43.206;23.550;2024-03-08T05:08:33;97540.53;;;5.40;100.00
21361;BME280;10839;43.206;23.550;2024-03-08T05:10:59;97525.47;;;5.31;100.00
21361;BME280;10839;43.206;23.550;2024-03-08T05:13:30;97532.59;;;5.48;100.00
21361;BME280;10839;43.206;23.550;2024-03-08T05:15:56;97528.19;;;5.39;100.00
21361;BME280;10839;43.206;23.550;2024-03-08T05:18:24;97540.53;;;5.40;100.00
21361;BME280;10839;43.206;23.550;2024-03-08T05:20:50;97537.03;;;5.21;100.00
21361;BME280;10839;43.206;23.550;2024-03-08T05:23:16;97534.41;;;5.65;100.00
21361;BME280;10839;43.206;23.550;2024-03-08T05:25:41;97548.47;;;5.32;100.00
21361;BME280;10839;43.206;23.550;2024-03-08T05:28:07;97558.06;;;5.24;100.00
21361;BME280;10839;43.206;23.550;2024-03-08T05:30:34;97546.31;;;5.17;100.00
21361;BME280;10839;43.206;23.550;2024-03-08T05:33:01;97551.88;;;5.24;100.00
21361;BME280;10839;43.206;23.550;2024-03-08T05:35:26;97573.16;;;5.34;100.00
21361;BME280;10839;43.206;23.550;2024-03-08T05:37:52;97563.19;;;5.36;100.00
21361;BME280;10839;43.206;23.550;2024-03-08T05:40:17;97568.34;;;5.55;100.00
21361;BME280;10839;43.206;23.550;2024-03-08T05:42:44;97552.91;;;5.41;100.00
21361;BME280;10839;43.206;23.550;2024-03-08T05:45:10;97569.81;;;5.32;100.00
21361;BME280;10839;43.206;23.550;2024-03-08T05:47:36;97584.91;;;5.41;100.00
21361;BME280;10839;43.206;23.550;2024-03-08T05:50:01;97587.09;;;5.10;100.00
21361;BME280;10839;43.206;23.550;2024-03-08T05:52:27;97588.91;;;5.09;100.00
21361;BME280;10839;43.206;23.550;2024-03-08T05:54:52;97567.97;;;5.14;100.00
21361;BME280;10839;43.206;23.550;2024-03-08T05:57:18;97589.19;;;5.34;100.00
21361;BME280;10839;43.206;23.550;2024-03-08T05:59:44;97578.53;;;5.24;100.00
21361;BME280;10839;43.206;23.550;2024-03-08T06:02:09;97590.69;;;5.18;100.00
21361;BME280;10839;43.206;23.550;2024-03-08T06:04:35;97594.81;;;5.31;100.00
21361;BME280;10839;43.206;23.550;2024-03-08T06:07:00;97593.44;;;5.27;100.00
21361;BME280;10839;43.206;23.550;2024-03-08T06:09:29;97604.03;;;5.36;100.00
21361;BME280;10839;43.206;23.550;2024-03-08T06:11:55;97607.53;;;5.37;100.00
21361;BME280;10839;43.206;23.550;2024-03-08T06:14:20;97605.75;;;5.28;100.00
21361;BME280;10839;43.206;23.550;2024-03-08T06:16:46;97592.03;;;5.22;100.00
21361;BME280;10839;43.206;23.550;2024-03-08T06:19:12;97599.22;;;5.40;100.00
21361;BME280;10839;43.206;23.550;2024-03-08T06:21:39;97603.63;;;5.31;100.00
21361;BME280;10839;43.206;23.550;2024-03-08T06:24:04;97604.34;;;5.33;100.00
21361;BME280;10839;43.206;23.550;2024-03-08T06:26:30;97596.78;;;5.29;100.00
21361;BME280;10839;43.206;23.550;2024-03-08T06:28:56;97612.25;;;5.43;100.00
21361;BME280;10839;43.206;23.550;2024-03-08T06:31:22;97618.28;;;5.45;100.00
21361;BME280;10839;43.206;23.550;2024-03-08T06:33:48;97617.66;;;5.51;100.00
21361;BME280;10839;43.206;23.550;2024-03-08T06:36:18;97610.34;;;5.53;100.00
21361;BME280;10839;43.206;23.550;2024-03-08T06:38:50;97615.63;;;5.45;100.00
21361;BME280;10839;43.206;23.550;2024-03-08T06:41:16;97617.97;;;5.48;100.00
21361;BME280;10839;43.206;23.550;2024-03-08T06:43:45;97618.28;;;5.45;100.00
21361;BME280;10839;43.206;23.550;2024-03-08T06:46:12;97611.47;;;5.33;100.00
21361;BME280;10839;43.206;23.550;2024-03-08T06:48:38;97622.19;;;5.50;100.00
21361;BME280;10839;43.206;23.550;2024-03-08T06:51:04;97614.94;;;5.43;100.00
21361;BME280;10839;43.206;23.550;2024-03-08T06:53:30;97615.69;;;5.53;100.00
21361;BME280;10839;43.206;23.550;2024-03-08T06:55:59;97627.88;;;5.38;100.00
21361;BME280;10839;43.206;23.550;2024-03-08T06:58:25;97617.66;;;5.51;100.00
21361;BME280;10839;43.206;23.550;2024-03-08T07:00:50;97619.50;;;5.33;100.00
21361;BME280;10839;43.206;23.550;2024-03-08T07:03:17;97633.41;;;5.54;100.00
21361;BME280;10839;43.206;23.550;2024-03-08T07:05:46;97638.03;;;5.69;100.00
21361;BME280;10839;43.206;23.550;2024-03-08T07:08:11;97620.81;;;5.64;100.00
21361;BME280;10839;43.206;23.550;2024-03-08T07:10:40;97641.25;;;5.55;100.00
21361;BME280;10839;43.206;23.550;2024-03-08T07:13:10;97642.00;;;5.48;100.00
21361;BME280;10839;43.206;23.550;2024-03-08T07:15:36;97640.25;;;5.56;100.00
21361;BME280;10839;43.206;23.550;2024-03-08T07:18:02;97624.31;;;5.47;100.00
21361;BME280;10839;43.206;23.550;2024-03-08T07:20:28;97609.75;;;5.59;100.00
21361;BME280;10839;43.206;23.550;2024-03-08T07:22:54;97639.19;;;5.67;100.00
21361;BME280;10839;43.206;23.550;2024-03-08T07:25:20;97633.72;;;5.86;100.00
21361;BME280;10839;43.206;23.550;2024-03-08T07:27:53;97632.66;;;5.79;100.00
21361;BME280;10839;43.206;23.550;2024-03-08T07:30:20;97632.94;;;5.76;100.00
21361;BME280;10839;43.206;23.550;2024-03-08T07:33:05;97629.66;;;5.82;100.00
21361;BME280;10839;43.206;23.550;2024-03-08T07:35:33;97631.63;;;5.80;100.00
21361;BME280;10839;43.206;23.550;2024-03-08T07:38:06;97631.34;;;5.83;100.00
21361;BME280;10839;43.206;23.550;2024-03-08T07:40:36;97625.78;;;5.94;100.00
21361;BME280;10839;43.206;23.550;2024-03-08T07:43:06;97641.28;;;5.90;100.00
21361;BME280;10839;43.206;23.550;2024-03-08T07:45:31;97643.25;;;5.88;100.00
21361;BME280;10839;43.206;23.550;2024-03-08T07:47:57;97644.94;;;6.07;100.00
21361;BME280;10839;43.206;23.550;2024-03-08T07:50:23;97646.47;;;5.92;100.00
21361;BME280;10839;43.206;23.550;2024-03-08T07:52:49;97638.78;;;5.89;100.00
21361;BME280;10839;43.206;23.550;2024-03-08T07:55:14;97654.81;;;5.62;100.00
21361;BME280;10839;43.206;23.550;2024-03-08T07:57:40;97657.50;;;5.62;100.00
21361;BME280;10839;43.206;23.550;2024-03-08T08:00:09;97654.91;;;5.70;100.00
21361;BME280;10839;43.206;23.550;2024-03-08T08:02:36;97653.75;;;6.07;100.00
21361;BME280;10839;43.206;23.550;2024-03-08T08:05:01;97647.75;;;5.88;100.00
21361;BME280;10839;43.206;23.550;2024-03-08T08:07:27;97652.31;;;5.78;100.00
21361;BME280;10839;43.206;23.550;2024-03-08T08:09:53;97654.59;;;5.73;100.00
21361;BME280;10839;43.206;23.550;2024-03-08T08:12:19;97664.69;;;5.79;100.00
21361;BME280;10839;43.206;23.550;2024-03-08T08:14:44;97643.16;;;5.98;100.00
21361;BME280;10839;43.206;23.550;2024-03-08T08:17:10;97670.91;;;5.70;100.00
21361;BME280;10839;43.206;23.550;2024-03-08T08:19:36;97663.78;;;5.88;100.00
21361;BME280;10839;43.206;23.550;2024-03-08T08:22:01;97647.44;;;5.91;100.00
21361;BME280;10839;43.206;23.550;2024-03-08T08:24:27;97652.19;;;5.97;100.00
21361;BME280;10839;43.206;23.550;2024-03-08T08:26:53;97658.88;;;6.01;100.00
21361;BME280;10839;43.206;23.550;2024-03-08T08:29:19;97649.69;;;6.21;100.00
21361;BME280;10839;43.206;23.550;2024-03-08T08:31:46;97659.19;;;5.98;100.00
21361;BME280;10839;43.206;23.550;2024-03-08T08:34:12;97661.16;;;5.96;100.00
21361;BME280;10839;43.206;23.550;2024-03-08T08:36:39;97659.81;;;5.92;100.00
21361;BME280;10839;43.206;23.550;2024-03-08T08:39:05;97657.28;;;6.08;100.00
21361;BME280;10839;43.206;23.550;2024-03-08T08:41:37;97659.63;;;5.76;100.00
21361;BME280;10839;43.206;23.550;2024-03-08T08:44:03;97659.63;;;6.11;100.00
21361;BME280;10839;43.206;23.550;2024-03-08T08:46:28;97659.50;;;5.95;100.00
21361;BME280;10839;43.206;23.550;2024-03-08T08:48:54;97660.41;;;5.86;100.00
21361;BME280;10839;43.206;23.550;2024-03-08T08:51:19;97652.94;;;5.72;100.00
21361;BME280;10839;43.206;23.550;2024-03-08T08:53:45;97659.34;;;5.79;100.00
21361;BME280;10839;43.206;23.550;2024-03-08T08:56:13;97648.50;;;5.98;100.00
21361;BME280;10839;43.206;23.550;2024-03-08T08:58:39;97650.00;;;6.18;100.00
21361;BME280;10839;43.206;23.550;2024-03-08T09:01:08;97645.72;;;6.25;100.00
21361;BME280;10839;43.206;23.550;2024-03-08T09:03:36;97644.34;;;6.21;100.00
21361;BME280;10839;43.206;23.550;2024-03-08T09:06:03;97652.41;;;6.29;100.00
21361;BME280;10839;43.206;23.550;2024-03-08T09:08:29;97640.72;;;6.22;100.00
21361;BME280;10839;43.206;23.550;2024-03-08T09:10:54;97637.72;;;6.07;100.00
21361;BME280;10839;43.206;23.550;2024-03-08T09:13:20;97640.38;;;6.25;100.00
21361;BME280;10839;43.206;23.550;2024-03-08T09:15:45;97644.53;;;6.45;100.00
21361;BME280;10839;43.206;23.550;2024-03-08T09:18:11;97631.03;;;6.29;100.00
21361;BME280;10839;43.206;23.550;2024-03-08T09:20:37;97642.56;;;6.47;100.00
21361;BME280;10839;43.206;23.550;2024-03-08T09:23:02;97643.91;;;6.25;100.00
21361;BME280;10839;43.206;23.550;2024-03-08T09:25:29;97645.16;;;6.39;100.00
21361;BME280;10839;43.206;23.550;2024-03-08T09:27:55;97647.59;;;6.32;100.00
21361;BME280;10839;43.206;23.550;2024-03-08T09:30:21;97652.22;;;6.48;100.00
21361;BME280;10839;43.206;23.550;2024-03-08T09:32:47;97657.59;;;6.48;100.00
21361;BME280;10839;43.206;23.550;2024-03-08T09:35:12;97655.22;;;6.45;100.00
21361;BME280;10839;43.206;23.550;2024-03-08T09:37:38;97649.88;;;6.45;100.00
21361;BME280;10839;43.206;23.550;2024-03-08T09:40:04;97661.97;;;6.57;100.00
21361;BME280;10839;43.206;23.550;2024-03-08T09:42:37;97646.66;;;6.67;100.00
21361;BME280;10839;43.206;23.550;2024-03-08T09:45:09;97665.66;;;6.56;100.00
21361;BME280;10839;43.206;23.550;2024-03-08T09:47:41;97642.69;;;6.71;100.00
21361;BME280;10839;43.206;23.550;2024-03-08T09:50:08;97652.25;;;6.74;100.00
21361;BME280;10839;43.206;23.550;2024-03-08T09:52:41;97650.34;;;6.66;100.00
21361;BME280;10839;43.206;23.550;2024-03-08T09:55:10;97662.69;;;6.67;100.00
21361;BME280;10839;43.206;23.550;2024-03-08T09:57:39;97659.44;;;6.81;100.00
21361;BME280;10839;43.206;23.550;2024-03-08T10:00:05;97657.34;;;6.67;100.00
21361;BME280;10839;43.206;23.550;2024-03-08T10:02:47;97652.44;;;6.80;100.00
21361;BME280;10839;43.206;23.550;2024-03-08T10:05:12;97659.63;;;7.13;100.00
21361;BME280;10839;43.206;23.550;2024-03-08T10:07:39;97643.09;;;6.84;100.00
21361;BME280;10839;43.206;23.550;2024-03-08T10:10:05;97661.28;;;7.14;100.00
21361;BME280;10839;43.206;23.550;2024-03-08T10:12:30;97667.19;;;6.92;100.00
21361;BME280;10839;43.206;23.550;2024-03-08T10:14:58;97674.63;;;7.06;100.00
21361;BME280;10839;43.206;23.550;2024-03-08T10:17:24;97652.75;;;6.52;100.00
21361;BME280;10839;43.206;23.550;2024-03-08T10:19:51;97657.59;;;6.74;100.00
21361;BME280;10839;43.206;23.550;2024-03-08T10:22:19;97661.75;;;6.50;100.00
21361;BME280;10839;43.206;23.550;2024-03-08T10:24:48;97656.22;;;6.44;100.00
21361;BME280;10839;43.206;23.550;2024-03-08T10:27:16;97663.03;;;6.64;100.00
21361;BME280;10839;43.206;23.550;2024-03-08T10:29:41;97664.31;;;6.52;100.00
21361;BME280;10839;43.206;23.550;2024-03-08T10:32:09;97662.28;;;6.54;100.00
21361;BME280;10839;43.206;23.550;2024-03-08T10:34:35;97659.25;;;6.75;100.00
21361;BME280;10839;43.206;23.550;2024-03-08T10:37:04;97658.63;;;6.55;100.00
21361;BME280;10839;43.206;23.550;2024-03-08T10:39:42;97653.59;;;6.52;100.00
21361;BME280;10839;43.206;23.550;2024-03-08T10:42:16;97656.41;;;6.76;100.00
21361;BME280;10839;43.206;23.550;2024-03-08T10:44:49;97648.34;;;6.68;100.00
21361;BME280;10839;43.206;23.550;2024-03-08T10:47:26;97647.63;;;6.58;100.00
21361;BME280;10839;43.206;23.550;2024-03-08T10:52:42;97647.81;;;6.39;100.00
21361;BME280;10839;43.206;23.550;2024-03-08T10:55:09;97640.91;;;6.54;100.00
21361;BME280;10839;43.206;23.550;2024-03-08T10:57:38;97647.94;;;6.29;100.00
21361;BME280;10839;43.206;23.550;2024-03-08T11:00:06;97630.31;;;6.19;100.00
21361;BME280;10839;43.206;23.550;2024-03-08T11:02:35;97643.50;;;5.95;100.00
21361;BME280;10839;43.206;23.550;2024-03-08T11:05:01;97638.22;;;6.03;100.00
21361;BME280;10839;43.206;23.550;2024-03-08T11:07:33;97632.31;;;6.17;100.00
21361;BME280;10839;43.206;23.550;2024-03-08T11:10:03;97630.31;;;6.19;100.00
21361;BME280;10839;43.206;23.550;2024-03-08T11:12:38;97624.88;;;6.28;100.00
21361;BME280;10839;43.206;23.550;2024-03-08T11:15:12;97631.31;;;5.48;100.00
21361;BME280;10839;43.206;23.550;2024-03-08T11:20:10;97635.22;;;5.71;100.00
21361;BME280;10839;43.206;23.550;2024-03-08T11:22:41;97629.66;;;5.82;100.00
21361;BME280;10839;43.206;23.550;2024-03-08T11:25:30;97611.97;;;5.98;100.00
21361;BME280;10839;43.206;23.550;2024-03-08T11:28:10;97626.38;;;6.05;100.00
21361;BME280;10839;43.206;23.550;2024-03-08T11:30:43;97625.09;;;6.35;100.00
21361;BME280;10839;43.206;23.550;2024-03-08T11:33:12;97608.94;;;6.19;100.00
21361;BME280;10839;43.206;23.550;2024-03-08T11:35:39;97622.75;;;6.66;100.00
21361;BME280;10839;43.206;23.550;2024-03-08T11:38:07;97614.50;;;6.51;100.00
21361;BME280;10839;43.206;23.550;2024-03-08T11:40:33;97623.75;;;6.39;100.00
21361;BME280;10839;43.206;23.550;2024-03-08T11:43:00;97627.81;;;6.43;100.00
21361;BME280;10839;43.206;23.550;2024-03-08T11:45:28;97625.50;;;6.48;100.00
21361;BME280;10839;43.206;23.550;2024-03-08T11:47:54;97609.78;;;6.45;100.00
21361;BME280;10839;43.206;23.550;2024-03-08T11:50:20;97613.75;;;6.41;100.00
21361;BME280;10839;43.206;23.550;2024-03-08T11:52:49;97608.00;;;6.28;100.00
21361;BME280;10839;43.206;23.550;2024-03-08T11:55:14;97616.38;;;6.33;100.00
21361;BME280;10839;43.206;23.550;2024-03-08T11:57:40;97616.75;;;6.38;100.00
21361;BME280;10839;43.206;23.550;2024-03-08T12:00:15;97615.13;;;6.45;100.00
21361;BME280;10839;43.206;23.550;2024-03-08T12:02:46;97605.38;;;6.36;100.00
21361;BME280;10839;43.206;23.550;2024-03-08T12:05:16;97617.53;;;6.56;100.00
21361;BME280;10839;43.206;23.550;2024-03-08T12:07:41;97598.81;;;6.30;100.00
21361;BME280;10839;43.206;23.550;2024-03-08T12:10:18;97608.81;;;6.54;100.00
21361;BME280;10839;43.206;23.550;2024-03-08T12:12:49;97619.97;;;6.41;100.00
21361;BME280;10839;43.206;23.550;2024-03-08T12:15:17;97615.94;;;6.45;100.00
21361;BME280;10839;43.206;23.550;2024-03-08T12:17:44;97610.53;;;6.55;100.00
21361;BME280;10839;43.206;23.550;2024-03-08T12:20:23;97614.81;;;6.48;100.00
21361;BME280;10839;43.206;23.550;2024-03-08T12:22:54;97614.16;;;6.54;100.00
21361;BME280;10839;43.206;23.550;2024-03-08T12:25:26;97614.97;;;6.46;100.00
21361;BME280;10839;43.206;23.550;2024-03-08T12:27:51;97617.84;;;6.53;100.00
21361;BME280;10839;43.206;23.550;2024-03-08T12:33:03;97616.84;;;6.54;100.00
21361;BME280;10839;43.206;23.550;2024-03-08T12:35:29;97618.53;;;6.55;100.00
21361;BME280;10839;43.206;23.550;2024-03-08T12:37:57;97614.56;;;6.67;100.00
21361;BME280;10839;43.206;23.550;2024-03-08T12:40:27;97616.53;;;6.57;100.00
21361;BME280;10839;43.206;23.550;2024-03-08T12:42:57;97609.03;;;6.61;100.00
21361;BME280;10839;43.206;23.550;2024-03-08T12:45:23;97614.41;;;6.35;100.00
21361;BME280;10839;43.206;23.550;2024-03-08T12:47:53;97609.09;;;6.43;100.00
21361;BME280;10839;43.206;23.550;2024-03-08T12:50:19;97611.69;;;6.27;100.00
21361;BME280;10839;43.206;23.550;2024-03-08T12:52:45;97607.06;;;6.37;100.00
21361;BME280;10839;43.206;23.550;2024-03-08T12:55:10;97610.13;;;6.42;100.00
21361;BME280;10839;43.206;23.550;2024-03-08T12:57:37;97607.00;;;6.29;100.00